createdAt,value
2023-02-02T00:01:13.767Z,87.70
2023-02-02T00:03:40.220Z,87.70
2023-02-02T00:06:06.648Z,87.80
2023-02-02T00:08:33.078Z,88.00
2023-02-02T00:10:59.463Z,88.00
2023-02-02T00:13:25.823Z,88.20
2023-02-02T00:15:52.229Z,88.40
2023-02-02T00:18:18.840Z,88.70
2023-02-02T00:20:45.257Z,89.10
2023-02-02T00:23:11.649Z,89.20
2023-02-02T00:25:38.081Z,89.30
2023-02-02T00:28:04.478Z,89.60
2023-02-02T00:30:30.952Z,89.80
2023-02-02T00:32:57.428Z,90.00
2023-02-02T00:35:24.094Z,90.10
2023-02-02T00:37:50.584Z,90.30
2023-02-02T00:40:17.000Z,90.50
2023-02-02T00:42:43.386Z,90.50
2023-02-02T00:45:09.813Z,90.60
2023-02-02T00:47:36.241Z,90.80
2023-02-02T00:50:02.670Z,91.00
2023-02-02T00:52:29.101Z,91.00
2023-02-02T00:54:55.535Z,91.10
2023-02-02T00:57:21.939Z,91.20
2023-02-02T00:59:48.382Z,91.10
2023-02-02T01:02:14.822Z,91.20
2023-02-02T01:04:41.272Z,91.10
2023-02-02T01:07:07.662Z,91.20
2023-02-02T01:09:34.093Z,91.20
2023-02-02T01:12:00.515Z,91.20
2023-02-02T01:14:26.928Z,91.20
2023-02-02T01:16:53.366Z,91.20
2023-02-02T01:19:19.908Z,91.20
2023-02-02T01:21:46.293Z,91.20
2023-02-02T01:24:12.683Z,91.20
2023-02-02T01:26:39.226Z,91.30
2023-02-02T01:29:05.697Z,91.20
2023-02-02T01:31:32.163Z,91.20
2023-02-02T01:33:58.621Z,91.20
2023-02-02T01:36:25.010Z,91.30
2023-02-02T01:38:51.434Z,91.30
2023-02-02T01:41:17.817Z,91.30
2023-02-02T01:43:44.253Z,91.30
2023-02-02T01:46:10.741Z,91.20
2023-02-02T01:48:37.231Z,91.30
2023-02-02T01:51:03.654Z,91.30
2023-02-02T01:53:30.041Z,91.20
2023-02-02T01:55:56.445Z,91.20
2023-02-02T01:58:22.874Z,91.20
2023-02-02T02:00:49.476Z,91.20
2023-02-02T02:03:15.906Z,91.20
2023-02-02T02:05:42.344Z,91.20
2023-02-02T02:08:08.780Z,91.20
2023-02-02T02:10:35.178Z,91.20
2023-02-02T02:13:01.581Z,91.20
2023-02-02T02:15:27.953Z,91.10
2023-02-02T02:17:54.385Z,91.10
2023-02-02T02:20:20.749Z,91.10
2023-02-02T02:22:47.141Z,91.30
2023-02-02T02:25:13.520Z,91.00
2023-02-02T02:27:39.902Z,91.00
2023-02-02T02:30:06.323Z,91.00
2023-02-02T02:32:32.702Z,91.00
2023-02-02T02:34:59.078Z,90.90
2023-02-02T02:37:25.444Z,90.90
2023-02-02T02:39:51.821Z,90.90
2023-02-02T02:42:18.260Z,90.80
2023-02-02T02:44:44.643Z,90.80
2023-02-02T02:47:11.077Z,90.80
2023-02-02T02:49:37.478Z,90.80
2023-02-02T02:52:03.856Z,90.70
2023-02-02T02:54:30.241Z,90.70
2023-02-02T02:56:56.603Z,90.70
2023-02-02T02:59:22.982Z,90.60
2023-02-02T03:01:49.738Z,90.60
2023-02-02T03:04:16.193Z,90.50
2023-02-02T03:06:42.623Z,90.50
2023-02-02T03:09:09.057Z,90.40
2023-02-02T03:11:35.462Z,90.40
2023-02-02T03:14:01.924Z,90.30
2023-02-02T03:16:28.358Z,90.30
2023-02-02T03:18:54.792Z,90.30
2023-02-02T03:21:21.227Z,90.20
2023-02-02T03:23:47.681Z,90.20
2023-02-02T03:26:14.099Z,90.20
2023-02-02T03:28:40.537Z,90.20
2023-02-02T03:31:07.060Z,90.20
2023-02-02T03:33:33.480Z,90.30
2023-02-02T03:35:59.922Z,90.30
2023-02-02T03:38:26.373Z,90.30
2023-02-02T03:40:52.769Z,90.50
2023-02-02T03:43:19.132Z,90.60
2023-02-02T03:45:45.514Z,90.70
2023-02-02T03:48:11.896Z,90.80
2023-02-02T03:50:38.286Z,90.90
2023-02-02T03:53:04.714Z,90.90
2023-02-02T03:55:31.082Z,91.00
2023-02-02T03:57:57.474Z,91.00
2023-02-02T04:00:23.842Z,91.10
2023-02-02T04:02:50.287Z,91.10
2023-02-02T04:05:16.748Z,91.20
2023-02-02T04:07:43.211Z,91.30
2023-02-02T04:10:09.648Z,91.40
2023-02-02T04:12:36.034Z,91.40
2023-02-02T04:15:02.414Z,91.40
2023-02-02T04:17:28.792Z,91.50
2023-02-02T04:19:55.169Z,91.50
2023-02-02T04:22:21.588Z,91.50
2023-02-02T04:24:48.025Z,91.40
2023-02-02T04:27:14.409Z,91.40
2023-02-02T04:29:40.780Z,91.40
2023-02-02T04:32:07.216Z,91.40
2023-02-02T04:34:33.620Z,91.50
2023-02-02T04:37:00.069Z,91.50
2023-02-02T04:39:26.557Z,91.50
2023-02-02T04:41:52.950Z,91.60
2023-02-02T04:44:19.372Z,91.70
2023-02-02T04:46:45.778Z,91.80
2023-02-02T04:49:12.164Z,91.80
2023-02-02T04:51:38.564Z,91.90
2023-02-02T04:54:04.933Z,92.00
2023-02-02T04:56:31.359Z,92.10
2023-02-02T04:58:57.807Z,92.20
2023-02-02T05:01:24.252Z,92.30
2023-02-02T05:03:50.664Z,92.40
2023-02-02T05:06:17.094Z,92.50
2023-02-02T05:08:43.543Z,92.70
2023-02-02T05:11:09.962Z,92.70
2023-02-02T05:13:36.430Z,92.80
2023-02-02T05:16:02.871Z,92.80
2023-02-02T05:18:29.254Z,92.80
2023-02-02T05:20:55.688Z,92.90
2023-02-02T05:23:22.138Z,93.00
2023-02-02T05:25:48.574Z,93.00
2023-02-02T05:28:14.946Z,93.00
2023-02-02T05:30:41.393Z,93.00
2023-02-02T05:33:07.865Z,93.00
2023-02-02T05:35:34.255Z,93.10
2023-02-02T05:38:00.635Z,93.10
2023-02-02T05:40:27.009Z,93.10
2023-02-02T05:42:53.367Z,93.10
2023-02-02T05:45:19.834Z,93.10
2023-02-02T05:47:46.241Z,93.10
2023-02-02T05:50:12.606Z,93.10
2023-02-02T05:52:38.977Z,93.10
2023-02-02T05:55:05.401Z,93.10
2023-02-02T05:57:31.840Z,93.10
2023-02-02T05:59:58.214Z,93.10
2023-02-02T06:02:24.653Z,93.10
2023-02-02T06:04:51.133Z,93.20
2023-02-02T06:07:17.711Z,93.20
2023-02-02T06:09:44.147Z,93.20
2023-02-02T06:12:10.517Z,93.20
2023-02-02T06:14:36.944Z,93.20
2023-02-02T06:17:03.378Z,93.10
2023-02-02T06:19:29.816Z,93.20
2023-02-02T06:21:56.253Z,93.20
2023-02-02T06:24:22.708Z,93.20
2023-02-02T06:26:49.161Z,93.20
2023-02-02T06:29:15.604Z,93.20
2023-02-02T06:31:42.099Z,93.20
2023-02-02T06:34:08.583Z,93.20
2023-02-02T06:36:34.961Z,93.20
2023-02-02T06:39:01.348Z,93.20
2023-02-02T06:41:27.730Z,93.20
2023-02-02T06:43:54.147Z,93.20
2023-02-02T06:46:20.730Z,93.20
2023-02-02T06:48:47.136Z,93.30
2023-02-02T06:51:13.530Z,93.30
2023-02-02T06:53:39.942Z,93.30
2023-02-02T06:56:06.328Z,93.30
2023-02-02T06:58:32.729Z,93.30
2023-02-02T07:00:59.163Z,93.30
2023-02-02T07:03:25.538Z,93.30
2023-02-02T07:05:51.951Z,93.30
2023-02-02T07:08:18.413Z,93.30
2023-02-02T07:11:13.142Z,93.30
2023-02-02T07:13:31.279Z,93.30
2023-02-02T07:15:57.736Z,93.20
2023-02-02T07:18:24.138Z,93.20
2023-02-02T07:20:50.508Z,93.20
2023-02-02T07:23:16.947Z,93.20
2023-02-02T07:25:44.009Z,93.20
2023-02-02T07:28:10.471Z,93.20
2023-02-02T07:30:36.869Z,93.20
2023-02-02T07:33:03.296Z,93.20
2023-02-02T07:35:29.721Z,93.20
2023-02-02T07:37:56.112Z,93.20
2023-02-02T07:40:22.490Z,93.20
2023-02-02T07:42:48.910Z,93.20
2023-02-02T07:45:26.905Z,93.20
2023-02-02T07:48:01.808Z,93.20
2023-02-02T07:50:28.259Z,93.50
2023-02-02T07:52:54.744Z,93.20
2023-02-02T07:55:21.297Z,93.50
2023-02-02T07:57:47.731Z,93.30
2023-02-02T08:00:14.178Z,93.30
2023-02-02T08:02:40.601Z,93.30
2023-02-02T08:05:07.078Z,93.30
2023-02-02T08:07:33.520Z,93.30
2023-02-02T08:09:59.967Z,93.30
2023-02-02T08:12:26.413Z,93.30
2023-02-02T08:14:52.820Z,93.30
2023-02-02T08:17:19.252Z,93.30
2023-02-02T08:19:45.695Z,93.30
2023-02-02T08:22:12.075Z,93.40
2023-02-02T08:24:38.489Z,93.40
2023-02-02T08:27:04.881Z,93.40
2023-02-02T08:29:31.338Z,93.40
2023-02-02T08:31:57.789Z,93.40
2023-02-02T08:34:24.265Z,93.40
2023-02-02T08:36:50.836Z,93.40
2023-02-02T08:39:17.269Z,93.40
2023-02-02T08:41:43.777Z,93.40
2023-02-02T08:44:11.621Z,93.40
2023-02-02T08:46:38.192Z,93.40
2023-02-02T08:49:04.671Z,93.50
2023-02-02T08:51:31.069Z,93.50
2023-02-02T08:53:57.516Z,93.40
2023-02-02T08:56:23.928Z,93.40
2023-02-02T08:58:50.374Z,93.40
2023-02-02T09:01:16.781Z,93.50
2023-02-02T09:03:43.258Z,93.50
2023-02-02T09:06:09.705Z,93.50
2023-02-02T09:08:36.132Z,93.50
2023-02-02T09:11:02.564Z,93.50
2023-02-02T09:13:28.945Z,93.50
2023-02-02T09:15:55.375Z,93.50
2023-02-02T09:18:21.821Z,93.50
2023-02-02T09:20:48.219Z,93.50
2023-02-02T09:23:14.650Z,93.40
2023-02-02T09:25:41.105Z,93.40
2023-02-02T09:28:07.508Z,93.40
2023-02-02T09:30:33.909Z,93.40
2023-02-02T09:33:00.358Z,93.40
2023-02-02T09:35:27.185Z,93.30
2023-02-02T09:37:53.845Z,93.30
2023-02-02T09:40:20.544Z,93.30
2023-02-02T09:42:46.970Z,93.30
2023-02-02T09:45:13.404Z,93.20
2023-02-02T09:47:39.796Z,93.20
2023-02-02T09:50:06.242Z,93.20
2023-02-02T09:52:32.681Z,93.20
2023-02-02T09:54:59.059Z,93.20
2023-02-02T09:57:25.485Z,93.10
2023-02-02T09:59:51.869Z,93.10
2023-02-02T10:02:18.237Z,93.10
2023-02-02T10:04:44.621Z,93.10
2023-02-02T10:07:11.051Z,93.00
2023-02-02T10:09:37.439Z,93.00
2023-02-02T10:12:03.837Z,93.00
2023-02-02T10:14:30.291Z,93.10
2023-02-02T10:16:56.724Z,93.10
2023-02-02T10:19:23.161Z,93.00
2023-02-02T10:21:49.878Z,93.00
2023-02-02T10:24:16.305Z,93.00
2023-02-02T10:26:42.735Z,93.00
2023-02-02T10:29:09.167Z,93.00
2023-02-02T10:31:35.665Z,93.00
2023-02-02T10:34:02.112Z,93.30
2023-02-02T10:36:28.548Z,93.20
2023-02-02T10:38:54.964Z,92.90
2023-02-02T10:41:21.344Z,92.90
2023-02-02T10:43:47.789Z,92.90
2023-02-02T10:46:14.251Z,92.90
2023-02-02T10:48:40.728Z,92.90
2023-02-02T10:51:07.131Z,92.90
2023-02-02T10:53:33.571Z,93.00
2023-02-02T10:56:00.001Z,93.00
2023-02-02T10:58:26.412Z,93.00
2023-02-02T11:00:53.013Z,93.00
2023-02-02T11:03:19.444Z,93.10
2023-02-02T11:05:45.890Z,93.00
2023-02-02T11:08:12.330Z,93.10
2023-02-02T11:10:38.717Z,93.10
2023-02-02T11:13:05.154Z,93.00
2023-02-02T11:15:31.634Z,93.00
2023-02-02T11:17:58.201Z,93.00
2023-02-02T11:20:24.960Z,93.00
2023-02-02T11:22:51.542Z,93.00
2023-02-02T11:25:17.969Z,93.00
2023-02-02T11:27:44.423Z,93.00
2023-02-02T11:30:10.813Z,92.90
2023-02-02T11:32:37.253Z,92.90
2023-02-02T11:35:03.668Z,92.90
2023-02-02T11:37:30.110Z,93.00
2023-02-02T11:39:56.490Z,92.90
2023-02-02T11:42:22.856Z,93.20
2023-02-02T11:44:49.279Z,92.80
2023-02-02T11:47:15.656Z,92.90
2023-02-02T11:49:42.121Z,92.80
2023-02-02T11:52:08.484Z,92.90
2023-02-02T11:54:34.925Z,92.90
2023-02-02T11:57:01.381Z,92.80
2023-02-02T11:59:27.830Z,92.80
2023-02-02T12:01:54.269Z,92.80
2023-02-02T12:04:20.682Z,92.80
2023-02-02T12:06:47.134Z,92.80
2023-02-02T12:09:13.570Z,92.80
2023-02-02T12:11:39.953Z,92.80
2023-02-02T12:14:06.366Z,92.80
2023-02-02T12:16:32.814Z,92.80
2023-02-02T12:18:59.279Z,92.80
2023-02-02T12:21:25.745Z,92.80
2023-02-02T12:23:52.187Z,92.80
2023-02-02T12:26:18.700Z,92.80
2023-02-02T12:28:45.184Z,92.80
2023-02-02T12:31:11.711Z,92.80
2023-02-02T12:33:38.258Z,92.70
2023-02-02T12:36:04.713Z,92.70
2023-02-02T12:38:31.117Z,92.70
2023-02-02T12:40:57.552Z,92.70
2023-02-02T12:43:23.929Z,92.70
2023-02-02T12:45:50.356Z,92.70
2023-02-02T12:48:16.805Z,92.70
2023-02-02T12:50:43.248Z,92.70
2023-02-02T12:53:09.624Z,92.70
2023-02-02T12:55:38.626Z,92.70
2023-02-02T12:58:07.318Z,92.60
2023-02-02T13:00:33.868Z,92.60
2023-02-02T13:03:00.389Z,92.60
2023-02-02T13:05:26.764Z,92.60
2023-02-02T13:07:53.145Z,92.60
2023-02-02T13:10:19.724Z,92.50
2023-02-02T13:12:46.535Z,92.50
2023-02-02T13:15:12.953Z,92.50
2023-02-02T13:17:39.349Z,92.50
2023-02-02T13:20:05.720Z,92.50
2023-02-02T13:22:32.113Z,92.50
2023-02-02T13:25:00.098Z,92.50
2023-02-02T13:27:27.254Z,92.50
2023-02-02T13:29:53.701Z,92.50
2023-02-02T13:32:20.155Z,92.50
2023-02-02T13:34:46.551Z,92.50
2023-02-02T13:37:13.591Z,92.50
2023-02-02T13:39:40.875Z,92.50
2023-02-02T13:42:07.516Z,92.50
2023-02-02T13:44:33.909Z,92.50
2023-02-02T13:47:00.324Z,92.50
2023-02-02T13:49:26.707Z,92.50
2023-02-02T13:51:53.127Z,92.60
2023-02-02T13:54:19.553Z,92.60
2023-02-02T13:56:46.083Z,92.60
2023-02-02T13:59:12.472Z,92.60
2023-02-02T14:01:41.468Z,92.60
2023-02-02T14:04:08.050Z,92.60
2023-02-02T14:06:34.501Z,92.60
2023-02-02T14:09:00.880Z,92.90
2023-02-02T14:11:27.277Z,92.60
2023-02-02T14:13:53.661Z,92.70
2023-02-02T14:16:20.129Z,92.70
2023-02-02T14:18:46.598Z,92.60
2023-02-02T14:21:12.992Z,92.70
2023-02-02T14:23:39.390Z,92.70
2023-02-02T14:26:05.786Z,92.70
2023-02-02T14:28:32.168Z,92.70
2023-02-02T14:30:58.636Z,92.70
2023-02-02T14:33:25.054Z,92.70
2023-02-02T14:35:51.433Z,92.70
2023-02-02T14:38:17.865Z,92.70
2023-02-02T14:40:44.249Z,92.70
2023-02-02T14:43:10.650Z,92.70
2023-02-02T14:45:37.050Z,92.80
2023-02-02T14:48:03.431Z,92.80
2023-02-02T14:50:29.819Z,92.70
2023-02-02T14:52:56.282Z,92.80
2023-02-02T14:55:22.670Z,92.70
2023-02-02T14:57:49.183Z,92.80
2023-02-02T15:00:15.595Z,92.80
2023-02-02T15:02:42.062Z,92.90
2023-02-02T15:05:08.483Z,92.90
2023-02-02T15:07:34.897Z,92.90
2023-02-02T15:10:01.313Z,92.90
2023-02-02T15:12:27.705Z,92.90
2023-02-02T15:14:54.094Z,92.80
2023-02-02T15:17:20.708Z,92.80
2023-02-02T15:19:47.112Z,92.80
2023-02-02T15:22:13.553Z,92.80
2023-02-02T15:24:39.959Z,92.90
2023-02-02T15:27:06.543Z,92.90
2023-02-02T15:29:32.944Z,92.90
2023-02-02T15:31:59.424Z,92.90
2023-02-02T15:34:25.862Z,92.90
2023-02-02T15:36:52.247Z,92.90
2023-02-02T15:39:18.629Z,92.90
2023-02-02T15:41:45.025Z,92.90
2023-02-02T15:44:11.443Z,92.90
2023-02-02T15:46:37.888Z,92.90
2023-02-02T15:49:04.306Z,92.90
2023-02-02T15:51:30.736Z,92.90
2023-02-02T15:53:57.133Z,92.90
2023-02-02T15:56:23.545Z,92.90
2023-02-02T15:58:50.114Z,92.90
2023-02-02T16:01:16.544Z,93.00
2023-02-02T16:03:42.979Z,92.90
2023-02-02T16:06:09.364Z,92.90
2023-02-02T16:08:35.743Z,93.00
2023-02-02T16:11:02.123Z,93.00
2023-02-02T16:13:28.496Z,93.00
2023-02-02T16:15:54.905Z,93.00
2023-02-02T16:18:21.341Z,93.00
2023-02-02T16:20:47.726Z,93.00
2023-02-02T16:23:14.131Z,93.10
2023-02-02T16:25:40.542Z,93.00
2023-02-02T16:28:06.973Z,93.00
2023-02-02T16:30:33.418Z,93.00
2023-02-02T16:32:59.903Z,93.10
2023-02-02T16:35:26.576Z,93.00
2023-02-02T16:37:53.156Z,93.00
2023-02-02T16:40:21.318Z,93.00
2023-02-02T16:42:48.957Z,93.00
2023-02-02T16:45:15.383Z,93.10
2023-02-02T16:47:41.785Z,93.10
2023-02-02T16:50:08.181Z,93.30
2023-02-02T16:52:34.587Z,93.10
2023-02-02T16:55:00.958Z,93.10
2023-02-02T16:57:27.351Z,93.10
2023-02-02T16:59:53.727Z,93.10
2023-02-02T17:02:20.270Z,93.10
2023-02-02T17:04:47.009Z,93.10
2023-02-02T17:07:13.405Z,93.00
2023-02-02T17:09:39.782Z,93.00
2023-02-02T17:12:06.351Z,93.00
2023-02-02T17:14:32.917Z,93.00
2023-02-02T17:16:59.370Z,93.10
2023-02-02T17:19:26.396Z,93.10
2023-02-02T17:21:52.806Z,93.10
2023-02-02T17:24:19.220Z,93.10
2023-02-02T17:26:45.647Z,93.10
2023-02-02T17:29:12.044Z,93.10
2023-02-02T17:31:38.600Z,93.10
2023-02-02T17:34:05.104Z,93.10
2023-02-02T17:36:31.749Z,93.10
2023-02-02T17:38:58.216Z,93.10
2023-02-02T17:41:24.616Z,93.10
2023-02-02T17:43:51.059Z,93.10
2023-02-02T17:46:17.504Z,93.10
2023-02-02T17:48:43.978Z,93.10
2023-02-02T17:51:10.378Z,93.20
2023-02-02T17:53:36.756Z,93.20
2023-02-02T17:56:03.187Z,93.50
2023-02-02T17:58:29.578Z,93.20
2023-02-02T18:00:55.970Z,93.20
2023-02-02T18:03:22.450Z,93.20
2023-02-02T18:05:48.910Z,93.10
2023-02-02T18:08:15.336Z,93.10
2023-02-02T18:10:41.767Z,93.10
2023-02-02T18:13:08.160Z,93.10
2023-02-02T18:15:34.569Z,93.10
2023-02-02T18:18:00.993Z,93.10
2023-02-02T18:20:27.380Z,93.10
2023-02-02T18:22:53.764Z,93.10
2023-02-02T18:25:20.153Z,93.10
2023-02-02T18:27:46.548Z,93.10
2023-02-02T18:30:12.935Z,93.10
2023-02-02T18:32:39.306Z,93.10
2023-02-02T18:35:05.690Z,93.10
2023-02-02T18:37:32.068Z,93.10
2023-02-02T18:39:58.457Z,93.10
2023-02-02T18:42:26.357Z,93.10
2023-02-02T18:44:52.798Z,93.00
2023-02-02T18:47:19.312Z,93.00
2023-02-02T18:49:45.699Z,93.00
2023-02-02T18:52:12.077Z,93.00
2023-02-02T18:54:38.448Z,93.00
2023-02-02T18:57:04.833Z,92.90
2023-02-02T18:59:31.229Z,92.90
2023-02-02T19:01:57.673Z,92.90
2023-02-02T19:04:24.162Z,93.00
2023-02-02T19:06:50.678Z,93.00
2023-02-02T19:09:17.132Z,92.90
2023-02-02T19:11:43.599Z,92.90
2023-02-02T19:14:10.007Z,92.90
2023-02-02T19:16:36.706Z,92.90
2023-02-02T19:19:03.073Z,92.90
2023-02-02T19:21:29.479Z,92.90
2023-02-02T19:23:55.865Z,92.90
2023-02-02T19:26:22.365Z,92.90
2023-02-02T19:28:48.780Z,92.90
2023-02-02T19:31:15.183Z,92.90
2023-02-02T19:33:41.606Z,92.90
2023-02-02T19:36:07.992Z,92.90
2023-02-02T19:38:34.388Z,92.90
2023-02-02T19:41:00.762Z,92.80
2023-02-02T19:43:27.178Z,92.90
2023-02-02T19:45:53.587Z,92.80
2023-02-02T19:48:19.963Z,92.80
2023-02-02T19:50:46.403Z,92.80
2023-02-02T19:53:12.795Z,92.80
2023-02-02T19:55:39.186Z,92.80
2023-02-02T19:58:05.570Z,92.80
2023-02-02T20:00:32.060Z,92.80
2023-02-02T20:02:58.499Z,92.80
2023-02-02T20:05:24.914Z,92.80
2023-02-02T20:07:51.304Z,92.80
2023-02-02T20:10:17.711Z,92.80
2023-02-02T20:12:44.136Z,92.80
2023-02-02T20:15:10.542Z,92.80
2023-02-02T20:17:36.928Z,92.80
2023-02-02T20:20:03.331Z,93.10
2023-02-02T20:22:29.722Z,92.80
2023-02-02T20:24:56.174Z,92.80
2023-02-02T20:27:22.556Z,92.80
2023-02-02T20:29:48.941Z,92.80
2023-02-02T20:32:21.835Z,92.90
2023-02-02T20:34:48.233Z,92.80
2023-02-02T20:37:14.638Z,92.80
2023-02-02T20:39:41.020Z,92.80
2023-02-02T20:42:07.701Z,93.10
2023-02-02T20:44:34.113Z,92.80
2023-02-02T20:47:00.510Z,92.80
2023-02-02T20:49:26.911Z,92.80
2023-02-02T20:51:53.283Z,92.80
2023-02-02T20:54:19.796Z,92.80
2023-02-02T20:56:46.598Z,92.80
2023-02-02T20:59:12.967Z,92.70
2023-02-02T21:01:39.376Z,92.70
2023-02-02T21:04:05.787Z,92.70
2023-02-02T21:06:32.169Z,92.70
2023-02-02T21:08:58.568Z,92.70
2023-02-02T21:11:24.960Z,92.70
2023-02-02T21:13:51.335Z,92.70
2023-02-02T21:16:17.752Z,92.70
2023-02-02T21:18:46.914Z,92.70
2023-02-02T21:21:13.781Z,92.70
2023-02-02T21:23:40.239Z,92.70
2023-02-02T21:26:06.988Z,92.70
2023-02-02T21:28:33.387Z,92.70
2023-02-02T21:30:59.940Z,92.60
2023-02-02T21:33:26.371Z,92.60
2023-02-02T21:35:52.787Z,92.60
2023-02-02T21:38:19.165Z,92.60
2023-02-02T21:40:45.719Z,92.60
2023-02-02T21:43:12.117Z,92.60
2023-02-02T21:45:38.663Z,92.90
2023-02-02T21:48:05.082Z,92.60
2023-02-02T21:50:31.479Z,92.60
2023-02-02T21:52:57.879Z,92.60
2023-02-02T21:55:24.273Z,92.50
2023-02-02T21:57:50.673Z,92.60
2023-02-02T22:00:17.059Z,92.60
2023-02-02T22:02:44.983Z,92.50
2023-02-02T22:05:11.625Z,92.50
2023-02-02T22:07:38.011Z,92.50
2023-02-02T22:10:04.404Z,92.50
2023-02-02T22:12:30.795Z,92.50
2023-02-02T22:14:57.164Z,92.50
2023-02-02T22:17:23.561Z,92.50
2023-02-02T22:19:49.928Z,92.50
2023-02-02T22:22:16.411Z,92.50
2023-02-02T22:24:42.849Z,92.50
2023-02-02T22:27:09.230Z,92.50
2023-02-02T22:29:35.623Z,92.40
2023-02-02T22:32:02.125Z,92.40
2023-02-02T22:34:28.596Z,92.40
2023-02-02T22:36:54.982Z,92.40
2023-02-02T22:39:21.385Z,92.40
2023-02-02T22:41:47.778Z,92.40
2023-02-02T22:44:14.166Z,92.40
2023-02-02T22:46:40.623Z,92.40
2023-02-02T22:49:07.024Z,92.40
2023-02-02T22:51:33.396Z,92.40
2023-02-02T22:53:59.895Z,92.40
2023-02-02T22:56:26.336Z,92.40
2023-02-02T22:58:52.735Z,92.40
2023-02-02T23:01:19.127Z,92.40
2023-02-02T23:03:45.582Z,92.40
2023-02-02T23:06:12.002Z,92.40
2023-02-02T23:08:38.383Z,92.40
2023-02-02T23:11:04.790Z,92.40
2023-02-02T23:13:31.156Z,92.40
2023-02-02T23:15:57.627Z,92.30
2023-02-02T23:18:24.040Z,92.30
2023-02-02T23:20:50.616Z,92.30
2023-02-02T23:23:16.996Z,92.40
2023-02-02T23:25:43.387Z,92.40
2023-02-02T23:28:09.827Z,92.40
2023-02-02T23:30:36.259Z,92.40
2023-02-02T23:33:02.652Z,92.40
2023-02-02T23:35:29.041Z,92.40
2023-02-02T23:37:55.408Z,92.40
2023-02-02T23:40:21.793Z,92.40
2023-02-02T23:42:48.166Z,92.40
2023-02-02T23:45:16.254Z,92.40
2023-02-02T23:47:42.843Z,92.40
2023-02-02T23:50:09.256Z,92.40
2023-02-02T23:52:35.643Z,92.40
2023-02-02T23:55:02.031Z,92.40
2023-02-02T23:57:28.431Z,92.40
2023-02-02T23:59:54.817Z,92.40
